Terminal Aerodrome Forecast
Issued by NWS Wakefield, VA

Home | Current Version | Previous Version | Text Only | Print | Product List | Glossary On
Versions: 1 2 3 4 5 6 7 8 9 10 11 12 13 14 15 16 17 18 19 20 21 22 23 24 25 26 27
000
FTUS41 KAKQ 240248 AAB
TAFECG
TAF AMD
KECG 240248Z 2403/2424 VRB06KT P6SM OVC012
      TEMPO 2403/2406 4SM -RA OVC005
     FM240600 VRB04KT P6SM VCSH OVC005
     FM241000 02005KT P6SM OVC007
     FM241400 05005KT P6SM OVC008
     FM241800 09007KT P6SM OVC010=

USA.gov is the U.S. government's official web portal to all federal, state and local government web resources and services.